createdAt,value
2017-02-20T00:00:40.854Z,4.18
2017-02-20T00:01:51.636Z,4.12
2017-02-20T00:03:01.638Z,4.17
2017-02-20T00:04:12.435Z,4.15
2017-02-20T00:05:23.218Z,4.11
2017-02-20T00:06:34.003Z,4.18
2017-02-20T00:07:44.407Z,4.17
2017-02-20T00:08:54.802Z,4.1
2017-02-20T00:10:05.215Z,4.07
2017-02-20T00:11:15.639Z,4.07
2017-02-20T00:12:26.021Z,4
2017-02-20T00:13:36.427Z,3.89
2017-02-20T00:14:46.820Z,3.86
2017-02-20T00:15:57.243Z,3.84
2017-02-20T00:17:08.019Z,3.84
2017-02-20T00:18:18.870Z,3.84
2017-02-20T00:19:29.656Z,3.72
2017-02-20T00:20:40.463Z,3.76
2017-02-20T00:21:50.120Z,3.76
2017-02-20T00:23:00.957Z,3.71
2017-02-20T00:24:11.756Z,3.69
2017-02-20T00:25:22.553Z,3.75
2017-02-20T00:26:32.137Z,3.71
2017-02-20T00:27:41.719Z,3.81
2017-02-20T00:28:52.496Z,3.81
2017-02-20T00:30:02.123Z,3.84
2017-02-20T00:31:12.503Z,3.78
2017-02-20T00:32:22.889Z,3.82
2017-02-20T00:33:33.262Z,3.86
2017-02-20T00:34:43.250Z,3.76
2017-02-20T00:35:54.028Z,3.79
2017-02-20T00:37:04.398Z,3.84
2017-02-20T00:38:15.189Z,3.74
2017-02-20T00:39:25.181Z,3.69
2017-02-20T00:40:35.562Z,3.75
2017-02-20T00:41:45.945Z,3.64
2017-02-20T00:42:56.731Z,3.69
2017-02-20T00:44:07.492Z,3.64
2017-02-20T00:45:17.880Z,3.71
2017-02-20T00:46:28.260Z,3.72
2017-02-20T00:47:38.242Z,3.66
2017-02-20T00:48:49.081Z,3.6
2017-02-20T00:49:59.475Z,3.66
2017-02-20T00:51:10.966Z,3.63
2017-02-20T00:52:22.234Z,3.66
2017-02-20T00:53:32.855Z,3.67
2017-02-20T00:54:43.627Z,3.74
2017-02-20T00:55:54.013Z,3.76
2017-02-20T00:57:05.563Z,3.76
2017-02-20T00:58:16.858Z,3.84
2017-02-20T00:59:26.865Z,3.76
2017-02-20T01:00:37.685Z,3.79
2017-02-20T01:01:48.083Z,3.89
2017-02-20T01:03:00.539Z,3.82
2017-02-20T01:04:11.827Z,3.89
2017-02-20T01:05:22.818Z,3.94
2017-02-20T01:06:33.596Z,4.02
2017-02-20T01:07:44.612Z,3.9
2017-02-20T01:08:55.034Z,3.9
2017-02-20T01:10:06.092Z,3.93
2017-02-20T01:11:17.632Z,3.93
2017-02-20T01:12:29.368Z,3.94
2017-02-20T01:13:40.200Z,3.92
2017-02-20T01:14:50.961Z,3.96
2017-02-20T01:16:01.733Z,4.03
2017-02-20T01:17:12.115Z,3.97
2017-02-20T01:18:22.962Z,3.96
2017-02-20T01:19:32.943Z,4.03
2017-02-20T01:20:43.323Z,3.97
2017-02-20T01:21:54.087Z,3.99
2017-02-20T01:23:04.479Z,4.02
2017-02-20T01:24:14.846Z,3.96
2017-02-20T01:25:24.820Z,4.04
2017-02-20T01:26:34.816Z,4.02
2017-02-20T01:27:45.600Z,4.02
2017-02-20T01:28:56.393Z,4.02
2017-02-20T01:30:07.184Z,3.93
2017-02-20T01:31:17.586Z,3.92
2017-02-20T01:32:28.388Z,3.99
2017-02-20T01:33:38.373Z,3.94
2017-02-20T01:34:49.172Z,3.96
2017-02-20T01:35:59.968Z,3.94
2017-02-20T01:37:09.953Z,3.97
2017-02-20T01:38:20.331Z,3.96
2017-02-20T01:39:31.119Z,3.82
2017-02-20T01:40:41.891Z,3.81
2017-02-20T01:41:52.667Z,3.76
2017-02-20T01:43:03.036Z,3.81
2017-02-20T01:44:13.416Z,3.66
2017-02-20T01:45:23.411Z,3.71
2017-02-20T01:46:33.825Z,3.67
2017-02-20T01:47:44.590Z,3.67
2017-02-20T01:48:54.569Z,3.64
2017-02-20T01:50:05.360Z,3.64
2017-02-20T01:51:16.134Z,3.53
2017-02-20T01:52:26.907Z,3.66
2017-02-20T01:53:37.304Z,3.6
2017-02-20T01:54:47.686Z,3.6
2017-02-20T01:55:58.089Z,3.67
2017-02-20T01:57:08.092Z,3.67
2017-02-20T01:58:18.876Z,3.67
2017-02-20T01:59:28.877Z,3.71
2017-02-20T02:00:39.678Z,3.66
2017-02-20T02:01:50.084Z,3.63
2017-02-20T02:03:00.484Z,3.64
2017-02-20T02:04:10.467Z,3.71
2017-02-20T02:05:20.871Z,3.75
2017-02-20T02:06:31.657Z,3.86
2017-02-20T02:07:42.444Z,3.74
2017-02-20T02:08:52.456Z,3.78
2017-02-20T02:10:02.431Z,3.89
2017-02-20T02:11:13.049Z,3.81
2017-02-20T02:12:23.458Z,3.84
2017-02-20T02:13:33.867Z,3.81
2017-02-20T02:14:44.661Z,3.79
2017-02-20T02:15:55.443Z,3.86
2017-02-20T02:17:06.208Z,3.85
2017-02-20T02:18:16.591Z,3.85
2017-02-20T02:19:27.392Z,3.92
2017-02-20T02:20:37.780Z,3.93
2017-02-20T02:21:48.194Z,3.89
2017-02-20T02:22:58.973Z,3.94
2017-02-20T02:24:09.748Z,3.97
2017-02-20T02:25:20.120Z,3.96
2017-02-20T02:26:30.910Z,4.07
2017-02-20T02:27:41.284Z,3.99
2017-02-20T02:28:52.070Z,4.02
2017-02-20T02:30:02.054Z,4.03
2017-02-20T02:31:12.822Z,4.03
2017-02-20T02:32:23.604Z,3.92
2017-02-20T02:33:33.627Z,3.89
2017-02-20T02:34:44.465Z,3.84
2017-02-20T02:35:55.263Z,3.84
2017-02-20T02:37:05.698Z,3.82
2017-02-20T02:38:16.114Z,3.86
2017-02-20T02:39:26.500Z,3.89
2017-02-20T02:40:37.275Z,3.86
2017-02-20T02:41:48.067Z,4.03
2017-02-20T02:42:58.825Z,3.99
2017-02-20T02:44:09.621Z,4.17
2017-02-20T02:45:20.006Z,4.2
2017-02-20T02:46:30.401Z,4.24
2017-02-20T02:47:41.184Z,4.38
2017-02-20T02:48:51.165Z,4.39
2017-02-20T02:50:01.550Z,4.48
2017-02-20T02:51:11.130Z,4.51
2017-02-20T02:52:21.520Z,4.6
2017-02-20T02:53:32.292Z,4.61
2017-02-20T02:54:43.058Z,4.66
2017-02-20T02:55:53.089Z,4.56
2017-02-20T02:57:03.485Z,4.64
2017-02-20T02:58:14.261Z,4.6
2017-02-20T02:59:23.870Z,4.6
2017-02-20T03:00:34.661Z,4.57
2017-02-20T03:32:46.295Z,1.02
2017-02-20T03:33:56.750Z,0.93
2017-02-20T03:35:07.119Z,0.85
2017-02-20T03:36:17.894Z,0.82
2017-02-20T03:37:28.642Z,0.89
2017-02-20T03:38:38.628Z,0.96
2017-02-20T03:39:49.399Z,1.1
2017-02-20T03:41:00.176Z,1.22
2017-02-20T03:42:10.174Z,1.3
2017-02-20T03:43:20.165Z,1.48
2017-02-20T03:44:30.166Z,1.64
2017-02-20T03:45:40.973Z,1.84
2017-02-20T03:46:51.341Z,1.89
2017-02-20T03:48:01.742Z,2.02
2017-02-20T03:49:11.367Z,2.2
2017-02-20T03:50:21.775Z,2.31
2017-02-20T03:51:32.171Z,2.41
2017-02-20T03:52:42.549Z,2.49
2017-02-20T03:53:52.921Z,2.62
2017-02-20T03:55:03.695Z,2.69
2017-02-20T03:56:13.288Z,2.62
2017-02-20T03:57:24.080Z,2.73
2017-02-20T03:58:34.837Z,2.78
2017-02-20T03:59:44.829Z,2.91
2017-02-20T04:00:54.815Z,2.9
2017-02-20T04:02:05.206Z,2.93
2017-02-20T04:03:15.198Z,2.96
2017-02-20T04:04:25.578Z,3.08
2017-02-20T04:05:35.951Z,3.13
2017-02-20T04:06:46.348Z,3.13
2017-02-20T04:07:56.756Z,3.23
2017-02-20T04:09:07.158Z,3.27
2017-02-20T04:10:16.749Z,3.34
2017-02-20T04:11:27.151Z,3.29
2017-02-20T04:12:36.738Z,3.39
2017-02-20T04:13:47.611Z,3.39
2017-02-20T04:14:57.619Z,3.53
2017-02-20T04:16:08.040Z,3.51
2017-02-20T04:17:18.814Z,3.57
2017-02-20T04:18:29.178Z,3.53
2017-02-20T04:19:39.957Z,3.54
2017-02-20T04:20:50.735Z,3.49
2017-02-20T04:22:01.116Z,3.63
2017-02-20T04:23:11.487Z,3.61
2017-02-20T04:24:21.875Z,3.69
2017-02-20T04:25:32.282Z,3.69
2017-02-20T04:26:43.065Z,3.74
2017-02-20T04:27:53.842Z,3.74
2017-02-20T04:29:04.648Z,3.75
2017-02-20T04:30:15.423Z,3.63
2017-02-20T04:31:26.238Z,3.75
2017-02-20T04:32:36.626Z,3.75
2017-02-20T04:33:47.415Z,3.79
2017-02-20T04:34:57.431Z,3.69
2017-02-20T04:36:08.255Z,3.79
2017-02-20T04:37:19.044Z,3.84
2017-02-20T04:38:29.822Z,3.74
2017-02-20T04:39:40.194Z,3.67
2017-02-20T04:40:50.176Z,3.63
2017-02-20T04:42:00.560Z,3.54
2017-02-20T04:43:11.350Z,3.54
2017-02-20T04:44:21.746Z,3.49
2017-02-20T04:45:32.127Z,3.56
2017-02-20T04:46:42.533Z,3.49
2017-02-20T04:47:52.920Z,3.45
2017-02-20T04:49:02.909Z,3.56
2017-02-20T04:50:13.301Z,3.49
2017-02-20T04:51:24.112Z,3.54
2017-02-20T04:52:34.901Z,3.49
2017-02-20T04:53:44.505Z,3.6
2017-02-20T04:54:55.276Z,3.56
2017-02-20T04:56:05.664Z,3.48
2017-02-20T04:57:16.430Z,3.54
2017-02-20T04:58:27.213Z,3.58
2017-02-20T04:59:37.997Z,3.61
2017-02-20T05:00:48.386Z,3.58
2017-02-20T05:01:58.772Z,3.51
2017-02-20T05:03:09.144Z,3.49
2017-02-20T05:04:19.540Z,3.54
2017-02-20T05:05:29.928Z,3.46
2017-02-20T05:06:39.940Z,3.51
2017-02-20T05:07:50.334Z,3.48
2017-02-20T05:09:00.726Z,3.51
2017-02-20T05:10:10.704Z,3.56
2017-02-20T05:11:21.076Z,3.49
2017-02-20T05:12:31.068Z,3.54
2017-02-20T05:13:41.444Z,3.54
2017-02-20T05:14:51.430Z,3.54
2017-02-20T05:16:01.451Z,3.48
2017-02-20T05:17:11.858Z,3.42
2017-02-20T05:18:22.231Z,3.57
2017-02-20T05:19:33.022Z,3.61
2017-02-20T05:20:43.805Z,3.53
2017-02-20T05:21:54.197Z,3.56
2017-02-20T05:23:04.983Z,3.58
2017-02-20T05:24:15.382Z,3.53
2017-02-20T05:25:25.752Z,3.6
2017-02-20T05:26:36.528Z,3.63
2017-02-20T05:27:46.925Z,3.61
2017-02-20T05:28:57.302Z,3.74
2017-02-20T05:30:06.910Z,3.84
2017-02-20T05:31:17.692Z,3.92
2017-02-20T05:32:27.667Z,3.84
2017-02-20T05:33:37.685Z,3.94
2017-02-20T05:34:48.470Z,4.03
2017-02-20T05:35:58.865Z,3.97
2017-02-20T05:37:09.249Z,3.99
2017-02-20T05:38:20.024Z,4.12
2017-02-20T05:39:30.850Z,4.17
2017-02-20T05:40:40.850Z,4.21
2017-02-20T05:41:51.225Z,4.15
2017-02-20T05:43:00.850Z,4.3
2017-02-20T05:44:11.618Z,4.28
2017-02-20T05:45:22.408Z,4.46
2017-02-20T05:46:32.801Z,4.42
2017-02-20T05:47:43.605Z,4.47
2017-02-20T05:48:54.387Z,4.5
2017-02-20T05:50:04.758Z,4.53
2017-02-20T05:51:15.131Z,4.66
2017-02-20T05:52:25.911Z,4.74
2017-02-20T05:53:35.088Z,4.71
2017-02-20T05:54:44.693Z,4.78
2017-02-20T05:55:55.087Z,4.83
2017-02-20T05:57:05.474Z,4.83
2017-02-20T05:58:16.244Z,5
2017-02-20T05:59:26.636Z,5.05
2017-02-20T06:00:37.423Z,5.27
2017-02-20T06:01:47.024Z,5.3
2017-02-20T06:02:57.446Z,5.37
2017-02-20T06:04:07.843Z,5.44
2017-02-20T06:05:18.631Z,5.6
2017-02-20T06:06:29.427Z,5.66
2017-02-20T06:07:39.819Z,5.62
2017-02-20T06:08:50.210Z,5.77
2017-02-20T06:10:00.993Z,5.88
2017-02-20T06:11:10.972Z,5.91
2017-02-20T06:12:21.375Z,5.98
2017-02-20T06:13:31.386Z,6.14
2017-02-20T06:14:40.981Z,6.17
2017-02-20T06:15:51.373Z,6.18
2017-02-20T06:17:02.132Z,6.29
2017-02-20T06:18:12.519Z,6.28
2017-02-20T06:19:23.284Z,6.39
2017-02-20T06:20:33.669Z,6.36
2017-02-20T06:21:44.503Z,6.33
2017-02-20T06:22:54.499Z,6.42
2017-02-20T06:24:05.282Z,6.51
2017-02-20T06:25:16.056Z,6.26
2017-02-20T06:26:26.869Z,6.39
2017-02-20T06:27:37.287Z,6.36
2017-02-20T06:28:47.695Z,6.43
2017-02-20T06:29:58.467Z,6.43
2017-02-20T06:31:09.257Z,6.34
2017-02-20T06:32:19.233Z,6.42
2017-02-20T06:33:29.631Z,6.42
2017-02-20T06:34:40.032Z,6.46
2017-02-20T06:35:50.798Z,6.39
2017-02-20T06:37:01.591Z,6.49
2017-02-20T06:38:11.594Z,6.42
2017-02-20T06:39:21.584Z,6.37
2017-02-20T06:40:31.981Z,6.44
2017-02-20T06:41:41.974Z,6.33
2017-02-20T06:42:52.362Z,6.47
2017-02-20T06:44:02.766Z,6.43
2017-02-20T06:45:13.169Z,6.4
2017-02-20T06:46:23.555Z,6.47
2017-02-20T06:47:34.331Z,6.44
2017-02-20T06:48:43.934Z,6.46
2017-02-20T06:49:54.348Z,6.51
2017-02-20T06:51:04.732Z,6.52
2017-02-20T06:52:15.522Z,6.55
2017-02-20T06:53:25.915Z,6.67
2017-02-20T06:54:36.681Z,6.72
2017-02-20T06:55:47.444Z,6.85
2017-02-20T06:56:57.046Z,6.76
2017-02-20T06:58:07.427Z,6.86
2017-02-20T06:59:17.853Z,6.82
2017-02-20T07:00:27.454Z,6.9
2017-02-20T07:01:37.847Z,6.93
2017-02-20T07:02:48.225Z,6.88
2017-02-20T07:03:59.017Z,6.97
2017-02-20T07:05:09.801Z,6.94
2017-02-20T07:06:20.617Z,6.88
2017-02-20T07:07:31.011Z,6.93
2017-02-20T07:08:41.800Z,6.91
2017-02-20T07:09:52.570Z,6.91
2017-02-20T07:11:02.542Z,6.91
2017-02-20T07:12:12.943Z,6.85
2017-02-20T07:13:22.913Z,6.93
2017-02-20T07:14:33.301Z,6.9
2017-02-20T07:15:43.683Z,6.93
2017-02-20T07:16:53.670Z,6.94
2017-02-20T07:18:04.455Z,7.16
2017-02-20T07:19:14.839Z,7.21
2017-02-20T07:20:24.833Z,7.22
2017-02-20T07:21:35.693Z,7.3
2017-02-20T07:22:46.483Z,7.33
2017-02-20T07:23:56.474Z,7.48
2017-02-20T07:25:06.866Z,7.59
2017-02-20T07:26:17.284Z,7.61
2017-02-20T07:27:27.673Z,7.59
2017-02-20T07:28:38.066Z,7.7
2017-02-20T07:29:48.837Z,7.73
2017-02-20T07:30:59.617Z,7.78
2017-02-20T07:32:10.396Z,7.78
2017-02-20T07:33:20.388Z,7.82
2017-02-20T07:34:30.780Z,7.82
2017-02-20T07:35:40.784Z,7.78
2017-02-20T07:36:50.789Z,7.75
2017-02-20T07:38:01.180Z,7.83
2017-02-20T07:39:11.562Z,7.96
2017-02-20T07:40:21.579Z,7.93
2017-02-20T07:41:32.344Z,8.19
2017-02-20T07:42:43.130Z,8.31
2017-02-20T07:43:53.604Z,8.47
2017-02-20T07:45:04.447Z,8.54
2017-02-20T07:46:15.237Z,8.62
2017-02-20T07:47:26.054Z,8.71
2017-02-20T07:48:36.446Z,8.9
2017-02-20T07:49:46.845Z,8.98
2017-02-20T07:50:57.657Z,8.92
2017-02-20T07:52:08.051Z,8.92
2017-02-20T07:53:18.460Z,8.97
2017-02-20T07:54:29.245Z,8.92
2017-02-20T07:55:39.631Z,9.05
2017-02-20T07:56:50.012Z,9.2
2017-02-20T07:57:59.619Z,9.3
2017-02-20T07:59:10.435Z,9.32
2017-02-20T08:00:21.210Z,9.45
2017-02-20T08:01:31.595Z,9.48
2017-02-20T08:02:41.961Z,9.53
2017-02-20T08:03:52.744Z,9.64
2017-02-20T08:05:03.159Z,9.77
2017-02-20T08:06:13.542Z,9.93
2017-02-20T08:07:24.324Z,10.1
2017-02-20T08:08:35.124Z,10.25
2017-02-20T08:09:45.893Z,10.35
2017-02-20T08:10:56.277Z,10.51
2017-02-20T08:12:06.654Z,10.61
2017-02-20T08:13:16.653Z,10.7
2017-02-20T08:14:27.044Z,10.69
2017-02-20T08:15:37.836Z,10.72
2017-02-20T08:16:48.636Z,10.63
2017-02-20T08:17:59.035Z,10.72
2017-02-20T08:19:09.044Z,10.88
2017-02-20T08:20:19.819Z,10.85
2017-02-20T08:21:30.198Z,11.09
2017-02-20T08:22:40.211Z,11.13
2017-02-20T08:23:50.667Z,11.16
2017-02-20T08:25:01.439Z,11.27
2017-02-20T08:26:11.836Z,11.39
2017-02-20T08:27:22.616Z,11.43
2017-02-20T08:28:32.606Z,11.51
2017-02-20T08:29:43.420Z,11.64
2017-02-20T08:30:53.789Z,11.66
2017-02-20T08:32:04.593Z,11.7
2017-02-20T08:33:14.186Z,11.75
2017-02-20T08:34:24.229Z,11.85
2017-02-20T08:35:34.612Z,11.85
2017-02-20T08:36:44.630Z,11.84
2017-02-20T08:37:55.412Z,11.78
2017-02-20T08:39:05.795Z,11.84
2017-02-20T08:40:16.215Z,11.86
2017-02-20T08:41:26.224Z,11.94
2017-02-20T08:42:37.013Z,12.04
2017-02-20T08:43:47.406Z,12.2
2017-02-20T08:44:57.807Z,12.16
2017-02-20T08:46:08.223Z,12.29
2017-02-20T08:47:18.217Z,12.37
2017-02-20T08:48:28.992Z,12.34
2017-02-20T08:49:39.395Z,12.34
2017-02-20T08:50:49.785Z,12.33
2017-02-20T08:52:00.164Z,12.37
2017-02-20T08:53:10.145Z,12.53
2017-02-20T08:54:20.945Z,12.56
2017-02-20T08:55:31.740Z,12.59
2017-02-20T08:56:42.114Z,12.61
2017-02-20T08:57:52.529Z,12.71
2017-02-20T08:59:02.533Z,12.62
2017-02-20T09:00:12.920Z,12.69
2017-02-20T09:01:23.313Z,12.8
2017-02-20T09:02:33.317Z,12.83
2017-02-20T09:03:44.105Z,13.09
2017-02-20T09:04:54.502Z,13.28
2017-02-20T09:06:04.891Z,13.35
2017-02-20T09:07:14.879Z,13.53
2017-02-20T09:08:25.678Z,13.54
2017-02-20T09:09:36.078Z,13.62
2017-02-20T09:10:46.090Z,13.62
2017-02-20T09:11:56.088Z,13.63
2017-02-20T09:13:06.888Z,13.73
2017-02-20T09:14:17.285Z,13.76
2017-02-20T09:15:27.685Z,13.87
2017-02-20T09:16:38.473Z,13.97
2017-02-20T09:17:49.245Z,13.97
2017-02-20T09:18:59.655Z,14.09
2017-02-20T09:20:10.473Z,14.09
2017-02-20T09:21:21.292Z,14.12
2017-02-20T09:22:31.673Z,14.13
2017-02-20T09:23:42.049Z,14.09
2017-02-20T09:24:52.451Z,14.15
2017-02-20T09:26:02.842Z,14.11
2017-02-20T09:27:13.654Z,14.16
2017-02-20T09:28:24.441Z,14.26
2017-02-20T09:29:34.822Z,14.39
2017-02-20T09:30:45.605Z,14.41
2017-02-20T09:31:56.386Z,14.42
2017-02-20T09:33:06.440Z,14.49
2017-02-20T09:34:16.851Z,14.45
2017-02-20T09:35:27.638Z,14.56
2017-02-20T09:36:38.033Z,14.74
2017-02-20T09:37:48.826Z,14.64
2017-02-20T09:38:58.855Z,14.61
2017-02-20T09:40:08.878Z,14.69
2017-02-20T09:41:19.282Z,14.77
2017-02-20T09:42:30.077Z,14.77
2017-02-20T09:43:40.861Z,14.89
2017-02-20T09:44:51.296Z,14.86
2017-02-20T09:46:01.274Z,14.98
2017-02-20T09:47:12.053Z,15.16
2017-02-20T09:48:22.434Z,15.23
2017-02-20T09:49:33.231Z,15.31
2017-02-20T09:50:43.625Z,15.44
2017-02-20T09:51:54.426Z,15.45
2017-02-20T09:53:05.230Z,15.65
2017-02-20T09:54:15.612Z,15.63
2017-02-20T09:55:26.408Z,15.68
2017-02-20T09:56:37.203Z,15.78
2017-02-20T09:57:47.643Z,15.78
2017-02-20T09:58:58.442Z,15.68
2017-02-20T10:00:08.837Z,15.62
2017-02-20T10:01:19.219Z,15.59
2017-02-20T10:02:30.020Z,15.41
2017-02-20T10:03:40.827Z,15.44
2017-02-20T10:04:50.473Z,15.49
2017-02-20T10:06:01.251Z,15.49
2017-02-20T10:07:11.651Z,15.49
2017-02-20T10:08:22.440Z,15.33
2017-02-20T10:09:33.222Z,15.25
2017-02-20T10:10:43.229Z,15.2
2017-02-20T10:11:54.034Z,15.15
2017-02-20T10:13:04.455Z,15.1
2017-02-20T10:14:14.456Z,15.08
2017-02-20T10:15:25.243Z,15.15
2017-02-20T10:16:36.028Z,15.15
2017-02-20T10:17:46.841Z,15.08
2017-02-20T10:18:57.240Z,15.18
2017-02-20T10:20:08.042Z,15.2
2017-02-20T10:21:18.968Z,15.19
2017-02-20T10:22:29.762Z,15.04
2017-02-20T10:23:40.212Z,14.85
2017-02-20T10:24:50.626Z,14.8
2017-02-20T10:26:01.423Z,14.7
2017-02-20T10:27:12.227Z,14.64
2017-02-20T10:28:22.630Z,14.63
2017-02-20T10:29:33.014Z,14.56
2017-02-20T10:30:43.413Z,14.66
2017-02-20T10:31:53.814Z,14.69
2017-02-20T10:33:03.431Z,14.77
2017-02-20T10:34:14.231Z,14.71
2017-02-20T10:35:24.654Z,14.77
2017-02-20T10:36:35.455Z,14.64
2017-02-20T10:37:46.243Z,14.67
2017-02-20T10:38:56.702Z,14.63
2017-02-20T10:40:07.112Z,14.51
2017-02-20T10:41:17.512Z,14.57
2017-02-20T10:42:28.314Z,14.51
2017-02-20T10:43:38.705Z,14.48
2017-02-20T10:44:49.512Z,14.45
2017-02-20T10:45:59.939Z,14.41
2017-02-20T10:47:10.732Z,14.41
2017-02-20T10:48:21.548Z,14.41
2017-02-20T10:49:31.525Z,14.51
2017-02-20T10:50:41.945Z,14.59
2017-02-20T10:51:52.758Z,14.64
2017-02-20T10:53:02.395Z,14.69
2017-02-20T10:54:13.162Z,14.71
2017-02-20T10:55:23.957Z,14.75
2017-02-20T10:56:34.368Z,14.74
2017-02-20T10:57:45.140Z,14.82
2017-02-20T10:58:55.552Z,14.9
2017-02-20T11:00:06.373Z,14.9
2017-02-20T11:01:16.358Z,14.79
2017-02-20T11:02:26.752Z,14.61
2017-02-20T11:03:36.759Z,14.59
2017-02-20T11:04:47.167Z,14.57
2017-02-20T11:05:57.967Z,14.57
2017-02-20T11:07:08.778Z,14.52
2017-02-20T11:08:19.169Z,14.59
2017-02-20T11:09:29.573Z,14.6
2017-02-20T11:10:40.383Z,14.77
2017-02-20T11:11:51.158Z,14.9
2017-02-20T11:13:01.557Z,15.12
2017-02-20T11:14:11.965Z,15.12
2017-02-20T11:15:22.367Z,15.2
2017-02-20T11:16:32.356Z,15.27
2017-02-20T11:17:42.757Z,15.34
2017-02-20T11:18:53.537Z,15.27
2017-02-20T11:20:04.329Z,15.16
2017-02-20T11:21:15.391Z,14.9
2017-02-20T11:22:25.824Z,14.82
2017-02-20T11:23:36.204Z,14.74
2017-02-20T11:24:46.977Z,14.83
2017-02-20T11:25:57.383Z,14.75
2017-02-20T11:27:07.759Z,14.59
2017-02-20T11:28:17.751Z,14.46
2017-02-20T11:29:28.526Z,14.33
2017-02-20T11:30:39.570Z,14.19
2017-02-20T11:31:49.587Z,13.94
2017-02-20T11:33:00.187Z,13.94
2017-02-20T11:34:10.172Z,13.7
2017-02-20T11:35:19.778Z,13.69
2017-02-20T11:36:30.193Z,13.78
2017-02-20T11:37:41.256Z,13.86
2017-02-20T11:38:51.832Z,13.87
2017-02-20T11:40:01.439Z,13.99
2017-02-20T11:41:12.211Z,14.08
2017-02-20T11:42:23.005Z,14.3
2017-02-20T11:43:33.384Z,14.13
2017-02-20T11:44:43.426Z,13.87
2017-02-20T11:45:54.241Z,13.94
2017-02-20T11:47:04.633Z,14.01
2017-02-20T11:48:15.026Z,14.23
2017-02-20T11:49:25.432Z,14.57
2017-02-20T11:50:35.805Z,14.44
2017-02-20T11:51:46.247Z,14.66
2017-02-20T11:52:57.021Z,14.9
2017-02-20T11:54:07.804Z,15.15
2017-02-20T11:55:18.193Z,15.22
2017-02-20T11:56:28.982Z,15.86
2017-02-20T11:57:39.763Z,16.34
2017-02-20T11:58:50.165Z,16.54
2017-02-20T12:00:00.968Z,16.67
2017-02-20T12:01:11.380Z,16.9
2017-02-20T12:02:21.772Z,17.05
2017-02-20T12:03:31.796Z,16.92
2017-02-20T12:04:42.200Z,16.47
2017-02-20T12:05:52.186Z,16.16
2017-02-20T12:07:02.581Z,15.65
2017-02-20T12:08:13.020Z,15.35
2017-02-20T12:09:23.393Z,15.01
2017-02-20T12:10:33.424Z,14.69
2017-02-20T12:11:44.210Z,14.52
2017-02-20T12:12:54.585Z,14.64
2017-02-20T12:14:05.389Z,14.85
2017-02-20T12:15:16.185Z,14.79
2017-02-20T12:16:26.974Z,15.08
2017-02-20T12:17:37.747Z,15.25
2017-02-20T12:18:48.537Z,15.41
2017-02-20T12:19:59.334Z,15.58
2017-02-20T12:21:09.742Z,15.74
2017-02-20T12:22:20.548Z,15.68
2017-02-20T12:23:30.959Z,15.23
2017-02-20T12:24:41.747Z,14.9
2017-02-20T12:25:52.529Z,14.66
2017-02-20T12:27:02.544Z,15.22
2017-02-20T12:28:12.515Z,15.02
2017-02-20T12:29:22.523Z,15.15
2017-02-20T12:30:33.310Z,15.34
2017-02-20T12:31:43.332Z,15.15
2017-02-20T12:32:54.137Z,14.77
2017-02-20T12:34:04.957Z,14.79
2017-02-20T12:35:15.746Z,14.86
2017-02-20T12:36:26.133Z,14.86
2017-02-20T12:37:36.911Z,15.04
2017-02-20T12:38:47.719Z,15.25
2017-02-20T12:39:57.716Z,15.53
2017-02-20T12:41:08.507Z,15.89
2017-02-20T12:42:19.297Z,15.86
2017-02-20T12:43:30.055Z,15.47
2017-02-20T12:44:39.654Z,15.26
2017-02-20T12:45:50.065Z,15.53
2017-02-20T12:47:00.470Z,15.83
2017-02-20T12:48:11.240Z,15.96
2017-02-20T12:49:20.482Z,15.43
2017-02-20T12:50:31.336Z,15.31
2017-02-20T12:51:41.575Z,15
2017-02-20T12:52:51.981Z,14.98
2017-02-20T12:54:02.369Z,14.71
2017-02-20T12:55:12.748Z,14.75
2017-02-20T12:56:23.138Z,14.87
2017-02-20T12:57:33.525Z,15.12
2017-02-20T12:58:43.119Z,15.33
2017-02-20T12:59:53.521Z,15.45
2017-02-20T13:01:03.531Z,15.51
2017-02-20T13:02:13.909Z,15.55
2017-02-20T13:03:24.728Z,15.67
2017-02-20T13:04:35.537Z,15.75
2017-02-20T13:05:45.944Z,15.81
2017-02-20T13:06:56.347Z,15.89
2017-02-20T13:08:06.768Z,15.99
2017-02-20T13:09:17.190Z,15.96
2017-02-20T13:10:27.201Z,16.04
2017-02-20T13:11:37.615Z,16.08
2017-02-20T13:12:48.004Z,16.08
2017-02-20T13:13:58.799Z,16
2017-02-20T13:15:09.203Z,15.93
2017-02-20T13:16:19.614Z,15.95
2017-02-20T13:17:30.411Z,15.95
2017-02-20T13:18:40.804Z,15.91
2017-02-20T13:19:51.579Z,15.93
2017-02-20T13:21:02.003Z,15.91
2017-02-20T13:22:12.015Z,15.99
2017-02-20T13:23:22.403Z,16.06
2017-02-20T13:24:32.812Z,16.18
2017-02-20T13:25:43.205Z,16.37
2017-02-20T13:26:53.198Z,16.36
2017-02-20T13:28:03.592Z,16.55
2017-02-20T13:29:14.380Z,16.67
2017-02-20T13:30:24.371Z,17.09
2017-02-20T13:31:34.359Z,17.09
2017-02-20T13:32:44.752Z,17.25
2017-02-20T13:33:55.156Z,17.28
2017-02-20T13:35:05.964Z,17.24
2017-02-20T13:36:16.359Z,17.12
2017-02-20T13:37:26.787Z,17.12
2017-02-20T13:38:37.594Z,17.17
2017-02-20T13:39:48.016Z,16.9
2017-02-20T13:40:58.805Z,16.84
2017-02-20T13:42:09.841Z,16.67
2017-02-20T13:43:20.631Z,16.51
2017-02-20T13:44:30.262Z,16.39
2017-02-20T13:45:40.681Z,16.37
2017-02-20T13:46:50.691Z,16.25
2017-02-20T13:48:01.510Z,16.13
2017-02-20T13:49:12.290Z,16.13
2017-02-20T13:50:22.299Z,16.14
2017-02-20T13:51:33.122Z,15.98
2017-02-20T13:52:42.745Z,16.08
2017-02-20T13:53:52.343Z,16.07
2017-02-20T13:55:03.112Z,15.95
2017-02-20T13:56:13.515Z,15.96
2017-02-20T13:57:24.303Z,15.84
2017-02-20T13:58:34.302Z,15.84
2017-02-20T13:59:44.706Z,15.92
2017-02-20T14:00:55.474Z,15.86
2017-02-20T14:02:05.476Z,15.71
2017-02-20T14:03:15.896Z,15.73
2017-02-20T14:04:26.704Z,15.67
2017-02-20T14:05:37.122Z,15.65
2017-02-20T14:06:47.500Z,15.65
2017-02-20T14:07:57.119Z,15.62
2017-02-20T14:09:07.933Z,15.55
2017-02-20T14:10:18.351Z,15.52
2017-02-20T14:11:28.747Z,15.51
2017-02-20T14:12:38.748Z,15.43
2017-02-20T14:13:48.741Z,15.3
2017-02-20T14:14:59.515Z,15.33
2017-02-20T14:16:09.909Z,15.33
2017-02-20T14:17:20.705Z,15.3
2017-02-20T14:18:31.098Z,15.27
2017-02-20T14:19:41.514Z,15.3
2017-02-20T14:20:51.927Z,15.22
2017-02-20T14:22:02.354Z,15.18
2017-02-20T14:23:12.765Z,15.16
2017-02-20T14:24:23.190Z,15.04
2017-02-20T14:25:33.571Z,15.05
2017-02-20T14:26:44.364Z,15.04
2017-02-20T14:27:55.165Z,15.07
2017-02-20T14:29:05.576Z,15.02
2017-02-20T14:30:15.226Z,15.01
2017-02-20T14:31:25.622Z,14.93
2017-02-20T14:32:36.018Z,14.86
2017-02-20T14:33:46.422Z,14.86
2017-02-20T14:34:56.420Z,14.8
2017-02-20T14:36:07.251Z,14.69
2017-02-20T14:37:18.037Z,14.66
2017-02-20T14:38:28.488Z,14.64
2017-02-20T14:39:39.342Z,14.74
2017-02-20T14:40:49.742Z,14.57
2017-02-20T14:42:00.537Z,14.56
2017-02-20T14:43:10.931Z,14.56
2017-02-20T14:44:20.956Z,14.59
2017-02-20T14:45:31.349Z,14.6
2017-02-20T14:46:42.174Z,14.53
2017-02-20T14:47:52.598Z,14.46
2017-02-20T14:49:03.373Z,14.44
2017-02-20T14:50:13.766Z,14.33
2017-02-20T14:51:24.550Z,14.28
2017-02-20T14:52:34.947Z,14.21
2017-02-20T14:53:45.371Z,14.23
2017-02-20T14:54:55.395Z,14.21
2017-02-20T14:56:06.226Z,14.09
2017-02-20T14:57:16.617Z,14.09
2017-02-20T14:58:27.410Z,14.08
2017-02-20T14:59:38.215Z,14.01
2017-02-20T15:00:48.635Z,13.99
2017-02-20T15:01:58.270Z,13.97
2017-02-20T15:03:08.265Z,14.02
2017-02-20T15:04:19.072Z,13.97
2017-02-20T15:05:29.878Z,13.95
2017-02-20T15:06:40.274Z,13.86
2017-02-20T15:07:50.684Z,13.95
2017-02-20T15:09:01.556Z,13.81
2017-02-20T15:10:12.373Z,13.86
2017-02-20T15:11:22.787Z,13.75
2017-02-20T15:12:33.571Z,13.75
2017-02-20T15:13:44.338Z,13.68
2017-02-20T15:14:54.349Z,13.65
2017-02-20T15:16:04.346Z,13.62
2017-02-20T15:17:14.343Z,13.62
2017-02-20T15:18:24.735Z,13.6
2017-02-20T15:19:35.122Z,13.65
2017-02-20T15:20:45.500Z,13.62
2017-02-20T15:21:56.314Z,13.6
2017-02-20T15:23:07.105Z,13.57
2017-02-20T15:24:17.889Z,13.51
2017-02-20T15:25:28.285Z,13.45
2017-02-20T15:26:38.694Z,13.39
2017-02-20T15:27:49.499Z,13.36
2017-02-20T15:28:59.909Z,13.24
2017-02-20T15:30:10.306Z,13.36
2017-02-20T15:31:21.091Z,13.24
2017-02-20T15:32:31.496Z,13.16
2017-02-20T15:33:41.522Z,13.16
2017-02-20T15:34:52.328Z,13.09
2017-02-20T15:36:02.743Z,12.95
2017-02-20T15:37:12.745Z,13.02
2017-02-20T15:38:23.544Z,12.89
2017-02-20T15:39:34.352Z,12.89
2017-02-20T15:40:45.141Z,12.71
2017-02-20T15:41:55.566Z,12.73
2017-02-20T15:43:06.378Z,12.62
2017-02-20T15:44:16.364Z,12.58
2017-02-20T15:45:27.208Z,12.53
2017-02-20T15:46:37.227Z,12.51
2017-02-20T15:47:48.044Z,12.52
2017-02-20T15:48:58.845Z,12.34
2017-02-20T15:50:09.637Z,12.34
2017-02-20T15:51:20.028Z,12.31
2017-02-20T15:52:30.835Z,12.28
2017-02-20T15:53:41.653Z,12.15
2017-02-20T15:54:52.444Z,12.18
2017-02-20T15:56:03.226Z,12.04